sensor_id;sensor_type;location;lat;lon;timestamp;P1;durP1;ratioP1;P2;durP2;ratioP2
5730;SDS011;2890;51.950;7.668;2024-03-07T00:00:11;56.73;;;35.43;;
5730;SDS011;2890;51.950;7.668;2024-03-07T00:02:42;54.53;;;34.40;;
5730;SDS011;2890;51.950;7.668;2024-03-07T00:05:09;53.10;;;34.00;;
5730;SDS011;2890;51.950;7.668;2024-03-07T00:07:36;51.47;;;32.93;;
5730;SDS011;2890;51.950;7.668;2024-03-07T00:10:03;51.10;;;33.37;;
5730;SDS011;2890;51.950;7.668;2024-03-07T00:12:33;52.00;;;31.90;;
5730;SDS011;2890;51.950;7.668;2024-03-07T00:15:00;59.37;;;32.60;;
5730;SDS011;2890;51.950;7.668;2024-03-07T00:17:27;50.90;;;33.47;;
5730;SDS011;2890;51.950;7.668;2024-03-07T00:19:53;53.13;;;33.80;;
5730;SDS011;2890;51.950;7.668;2024-03-07T00:22:20;61.57;;;33.37;;
5730;SDS011;2890;51.950;7.668;2024-03-07T00:24:47;58.00;;;33.80;;
5730;SDS011;2890;51.950;7.668;2024-03-07T00:27:14;53.73;;;32.60;;
5730;SDS011;2890;51.950;7.668;2024-03-07T00:29:42;55.70;;;32.73;;
5730;SDS011;2890;51.950;7.668;2024-03-07T00:32:08;46.17;;;31.37;;
5730;SDS011;2890;51.950;7.668;2024-03-07T00:34:36;56.90;;;33.97;;
5730;SDS011;2890;51.950;7.668;2024-03-07T00:37:04;49.67;;;31.17;;
5730;SDS011;2890;51.950;7.668;2024-03-07T00:39:30;48.43;;;32.57;;
5730;SDS011;2890;51.950;7.668;2024-03-07T00:41:58;52.83;;;32.90;;
5730;SDS011;2890;51.950;7.668;2024-03-07T00:44:25;56.20;;;32.43;;
5730;SDS011;2890;51.950;7.668;2024-03-07T00:46:52;45.47;;;31.33;;
5730;SDS011;2890;51.950;7.668;2024-03-07T00:49:19;48.87;;;32.00;;
5730;SDS011;2890;51.950;7.668;2024-03-07T00:51:45;46.30;;;30.23;;
5730;SDS011;2890;51.950;7.668;2024-03-07T00:54:12;44.03;;;29.27;;
5730;SDS011;2890;51.950;7.668;2024-03-07T00:56:39;56.10;;;29.90;;
5730;SDS011;2890;51.950;7.668;2024-03-07T00:59:05;48.87;;;31.50;;
5730;SDS011;2890;51.950;7.668;2024-03-07T01:01:32;53.83;;;30.50;;
5730;SDS011;2890;51.950;7.668;2024-03-07T01:04:02;46.93;;;30.70;;
5730;SDS011;2890;51.950;7.668;2024-03-07T01:06:29;39.07;;;28.40;;
5730;SDS011;2890;51.950;7.668;2024-03-07T01:08:56;44.27;;;28.83;;
5730;SDS011;2890;51.950;7.668;2024-03-07T01:11:22;43.07;;;28.30;;
5730;SDS011;2890;51.950;7.668;2024-03-07T01:13:49;44.67;;;28.27;;
5730;SDS011;2890;51.950;7.668;2024-03-07T01:16:15;40.17;;;28.10;;
5730;SDS011;2890;51.950;7.668;2024-03-07T01:18:42;42.83;;;28.00;;
5730;SDS011;2890;51.950;7.668;2024-03-07T01:21:09;40.53;;;26.00;;
5730;SDS011;2890;51.950;7.668;2024-03-07T01:23:36;41.57;;;27.50;;
5730;SDS011;2890;51.950;7.668;2024-03-07T01:26:03;39.33;;;26.17;;
5730;SDS011;2890;51.950;7.668;2024-03-07T01:28:29;37.17;;;26.10;;
5730;SDS011;2890;51.950;7.668;2024-03-07T01:30:56;40.37;;;25.70;;
5730;SDS011;2890;51.950;7.668;2024-03-07T01:33:23;35.60;;;24.80;;
5730;SDS011;2890;51.950;7.668;2024-03-07T01:35:50;45.47;;;27.60;;
5730;SDS011;2890;51.950;7.668;2024-03-07T01:38:18;34.20;;;24.70;;
5730;SDS011;2890;51.950;7.668;2024-03-07T01:40:45;36.63;;;26.40;;
5730;SDS011;2890;51.950;7.668;2024-03-07T01:43:11;40.13;;;25.80;;
5730;SDS011;2890;51.950;7.668;2024-03-07T01:45:38;38.13;;;26.40;;
5730;SDS011;2890;51.950;7.668;2024-03-07T01:48:05;43.50;;;25.90;;
5730;SDS011;2890;51.950;7.668;2024-03-07T01:50:32;39.73;;;24.17;;
5730;SDS011;2890;51.950;7.668;2024-03-07T01:52:59;41.23;;;25.37;;
5730;SDS011;2890;51.950;7.668;2024-03-07T01:55:27;34.20;;;25.47;;
5730;SDS011;2890;51.950;7.668;2024-03-07T01:57:55;34.50;;;24.90;;
5730;SDS011;2890;51.950;7.668;2024-03-07T02:00:23;36.50;;;24.70;;
5730;SDS011;2890;51.950;7.668;2024-03-07T02:02:49;33.50;;;22.93;;
5730;SDS011;2890;51.950;7.668;2024-03-07T02:05:16;35.27;;;25.43;;
5730;SDS011;2890;51.950;7.668;2024-03-07T02:07:42;36.60;;;23.93;;
5730;SDS011;2890;51.950;7.668;2024-03-07T02:10:09;31.90;;;23.80;;
5730;SDS011;2890;51.950;7.668;2024-03-07T02:12:37;34.20;;;23.60;;
5730;SDS011;2890;51.950;7.668;2024-03-07T02:15:03;32.57;;;23.97;;
5730;SDS011;2890;51.950;7.668;2024-03-07T02:17:30;34.23;;;23.70;;
5730;SDS011;2890;51.950;7.668;2024-03-07T02:19:57;31.87;;;23.53;;
5730;SDS011;2890;51.950;7.668;2024-03-07T02:22:25;32.97;;;24.00;;
5730;SDS011;2890;51.950;7.668;2024-03-07T02:24:52;32.30;;;23.73;;
5730;SDS011;2890;51.950;7.668;2024-03-07T02:27:19;30.90;;;22.50;;
5730;SDS011;2890;51.950;7.668;2024-03-07T02:29:45;36.50;;;21.83;;
5730;SDS011;2890;51.950;7.668;2024-03-07T02:32:12;29.90;;;21.80;;
5730;SDS011;2890;51.950;7.668;2024-03-07T02:34:38;35.07;;;23.23;;
5730;SDS011;2890;51.950;7.668;2024-03-07T02:37:05;31.40;;;22.80;;
5730;SDS011;2890;51.950;7.668;2024-03-07T02:39:35;28.30;;;21.03;;
5730;SDS011;2890;51.950;7.668;2024-03-07T02:42:02;31.53;;;23.77;;
5730;SDS011;2890;51.950;7.668;2024-03-07T02:44:28;32.50;;;22.60;;
5730;SDS011;2890;51.950;7.668;2024-03-07T02:46:56;33.00;;;21.70;;
5730;SDS011;2890;51.950;7.668;2024-03-07T02:49:23;32.33;;;22.87;;
5730;SDS011;2890;51.950;7.668;2024-03-07T02:51:49;31.73;;;22.77;;
5730;SDS011;2890;51.950;7.668;2024-03-07T02:54:16;32.33;;;21.90;;
5730;SDS011;2890;51.950;7.668;2024-03-07T02:56:44;30.13;;;21.63;;
5730;SDS011;2890;51.950;7.668;2024-03-07T02:59:11;27.87;;;22.17;;
5730;SDS011;2890;51.950;7.668;2024-03-07T03:01:38;27.67;;;21.20;;
5730;SDS011;2890;51.950;7.668;2024-03-07T03:04:05;30.43;;;22.07;;
5730;SDS011;2890;51.950;7.668;2024-03-07T03:06:31;33.50;;;21.27;;
5730;SDS011;2890;51.950;7.668;2024-03-07T03:08:58;29.10;;;20.80;;
5730;SDS011;2890;51.950;7.668;2024-03-07T03:11:24;34.70;;;22.80;;
5730;SDS011;2890;51.950;7.668;2024-03-07T03:13:53;29.90;;;22.10;;
5730;SDS011;2890;51.950;7.668;2024-03-07T03:16:20;35.33;;;22.53;;
5730;SDS011;2890;51.950;7.668;2024-03-07T03:18:47;32.33;;;22.50;;
5730;SDS011;2890;51.950;7.668;2024-03-07T03:21:14;38.30;;;23.30;;
5730;SDS011;2890;51.950;7.668;2024-03-07T03:23:41;30.80;;;22.30;;
5730;SDS011;2890;51.950;7.668;2024-03-07T03:26:07;33.77;;;22.63;;
5730;SDS011;2890;51.950;7.668;2024-03-07T03:28:34;33.13;;;22.53;;
5730;SDS011;2890;51.950;7.668;2024-03-07T03:31:02;31.83;;;22.60;;
5730;SDS011;2890;51.950;7.668;2024-03-07T03:33:29;29.97;;;21.97;;
5730;SDS011;2890;51.950;7.668;2024-03-07T03:35:57;36.60;;;24.50;;
5730;SDS011;2890;51.950;7.668;2024-03-07T03:38:24;31.90;;;24.10;;
5730;SDS011;2890;51.950;7.668;2024-03-07T03:40:50;31.33;;;22.10;;
5730;SDS011;2890;51.950;7.668;2024-03-07T03:43:17;26.93;;;20.57;;
5730;SDS011;2890;51.950;7.668;2024-03-07T03:45:43;29.47;;;22.20;;
5730;SDS011;2890;51.950;7.668;2024-03-07T03:48:13;28.93;;;21.63;;
5730;SDS011;2890;51.950;7.668;2024-03-07T03:50:40;28.53;;;21.70;;
5730;SDS011;2890;51.950;7.668;2024-03-07T03:53:07;26.87;;;20.87;;
5730;SDS011;2890;51.950;7.668;2024-03-07T03:55:33;34.20;;;21.83;;
5730;SDS011;2890;51.950;7.668;2024-03-07T03:58:00;28.27;;;21.43;;
5730;SDS011;2890;51.950;7.668;2024-03-07T04:00:26;31.30;;;23.10;;
5730;SDS011;2890;51.950;7.668;2024-03-07T04:02:53;29.90;;;22.10;;
5730;SDS011;2890;51.950;7.668;2024-03-07T04:05:21;32.13;;;21.77;;
5730;SDS011;2890;51.950;7.668;2024-03-07T04:07:48;29.07;;;21.47;;
5730;SDS011;2890;51.950;7.668;2024-03-07T04:10:15;36.57;;;22.07;;
5730;SDS011;2890;51.950;7.668;2024-03-07T04:12:42;28.73;;;21.23;;
5730;SDS011;2890;51.950;7.668;2024-03-07T04:15:13;29.00;;;21.47;;
5730;SDS011;2890;51.950;7.668;2024-03-07T04:17:41;32.07;;;21.77;;
5730;SDS011;2890;51.950;7.668;2024-03-07T04:20:08;30.30;;;21.43;;
5730;SDS011;2890;51.950;7.668;2024-03-07T04:22:37;32.67;;;22.23;;
5730;SDS011;2890;51.950;7.668;2024-03-07T04:25:04;28.37;;;20.63;;
5730;SDS011;2890;51.950;7.668;2024-03-07T04:27:32;30.17;;;20.90;;
5730;SDS011;2890;51.950;7.668;2024-03-07T04:30:01;35.63;;;22.53;;
5730;SDS011;2890;51.950;7.668;2024-03-07T04:32:29;28.97;;;21.03;;
5730;SDS011;2890;51.950;7.668;2024-03-07T04:34:55;31.53;;;22.70;;
5730;SDS011;2890;51.950;7.668;2024-03-07T04:37:23;31.60;;;22.50;;
5730;SDS011;2890;51.950;7.668;2024-03-07T04:39:50;31.97;;;21.10;;
5730;SDS011;2890;51.950;7.668;2024-03-07T04:42:17;28.17;;;21.17;;
5730;SDS011;2890;51.950;7.668;2024-03-07T04:44:44;30.30;;;22.53;;
5730;SDS011;2890;51.950;7.668;2024-03-07T04:47:10;33.03;;;21.43;;
5730;SDS011;2890;51.950;7.668;2024-03-07T04:49:37;29.33;;;21.80;;
5730;SDS011;2890;51.950;7.668;2024-03-07T04:52:05;29.90;;;21.93;;
5730;SDS011;2890;51.950;7.668;2024-03-07T04:54:32;31.87;;;21.33;;
5730;SDS011;2890;51.950;7.668;2024-03-07T04:57:00;29.33;;;21.30;;
5730;SDS011;2890;51.950;7.668;2024-03-07T04:59:27;30.87;;;22.13;;
5730;SDS011;2890;51.950;7.668;2024-03-07T05:01:53;34.30;;;22.00;;
5730;SDS011;2890;51.950;7.668;2024-03-07T05:04:20;29.53;;;22.20;;
5730;SDS011;2890;51.950;7.668;2024-03-07T05:06:49;31.60;;;22.37;;
5730;SDS011;2890;51.950;7.668;2024-03-07T05:09:16;36.87;;;22.60;;
5730;SDS011;2890;51.950;7.668;2024-03-07T05:11:50;28.00;;;21.30;;
5730;SDS011;2890;51.950;7.668;2024-03-07T05:14:19;31.37;;;22.27;;
5730;SDS011;2890;51.950;7.668;2024-03-07T05:16:46;31.37;;;23.17;;
5730;SDS011;2890;51.950;7.668;2024-03-07T05:19:27;33.50;;;22.20;;
5730;SDS011;2890;51.950;7.668;2024-03-07T05:21:54;31.13;;;21.20;;
5730;SDS011;2890;51.950;7.668;2024-03-07T05:24:20;32.60;;;22.97;;
5730;SDS011;2890;51.950;7.668;2024-03-07T05:26:47;28.57;;;23.30;;
5730;SDS011;2890;51.950;7.668;2024-03-07T05:29:14;29.23;;;21.83;;
5730;SDS011;2890;51.950;7.668;2024-03-07T05:31:44;32.77;;;23.87;;
5730;SDS011;2890;51.950;7.668;2024-03-07T05:34:12;28.00;;;20.63;;
5730;SDS011;2890;51.950;7.668;2024-03-07T05:36:40;32.37;;;23.87;;
5730;SDS011;2890;51.950;7.668;2024-03-07T05:39:09;34.23;;;23.27;;
5730;SDS011;2890;51.950;7.668;2024-03-07T05:41:36;50.00;;;28.37;;
5730;SDS011;2890;51.950;7.668;2024-03-07T05:44:03;43.40;;;26.60;;
5730;SDS011;2890;51.950;7.668;2024-03-07T05:46:33;34.80;;;24.93;;
5730;SDS011;2890;51.950;7.668;2024-03-07T05:49:01;34.63;;;25.17;;
5730;SDS011;2890;51.950;7.668;2024-03-07T05:51:29;36.03;;;25.00;;
5730;SDS011;2890;51.950;7.668;2024-03-07T05:53:55;35.93;;;23.87;;
5730;SDS011;2890;51.950;7.668;2024-03-07T05:56:22;33.03;;;24.13;;
5730;SDS011;2890;51.950;7.668;2024-03-07T05:58:48;37.10;;;24.00;;
5730;SDS011;2890;51.950;7.668;2024-03-07T06:01:16;37.53;;;23.77;;
5730;SDS011;2890;51.950;7.668;2024-03-07T06:03:43;32.50;;;23.63;;
5730;SDS011;2890;51.950;7.668;2024-03-07T06:06:11;38.73;;;24.90;;
5730;SDS011;2890;51.950;7.668;2024-03-07T06:08:37;33.17;;;23.70;;
5730;SDS011;2890;51.950;7.668;2024-03-07T06:11:07;32.83;;;23.83;;
5730;SDS011;2890;51.950;7.668;2024-03-07T06:13:34;32.07;;;22.70;;
5730;SDS011;2890;51.950;7.668;2024-03-07T06:16:00;32.10;;;21.97;;
5730;SDS011;2890;51.950;7.668;2024-03-07T06:18:30;32.37;;;22.63;;
5730;SDS011;2890;51.950;7.668;2024-03-07T06:20:57;35.57;;;23.20;;
5730;SDS011;2890;51.950;7.668;2024-03-07T06:23:25;34.20;;;23.70;;
5730;SDS011;2890;51.950;7.668;2024-03-07T06:25:53;38.00;;;24.07;;
5730;SDS011;2890;51.950;7.668;2024-03-07T06:28:21;38.47;;;24.20;;
5730;SDS011;2890;51.950;7.668;2024-03-07T06:30:47;35.00;;;24.10;;
5730;SDS011;2890;51.950;7.668;2024-03-07T06:33:14;32.10;;;21.90;;
5730;SDS011;2890;51.950;7.668;2024-03-07T06:35:41;30.37;;;22.80;;
5730;SDS011;2890;51.950;7.668;2024-03-07T06:38:08;32.50;;;23.80;;
5730;SDS011;2890;51.950;7.668;2024-03-07T06:40:36;35.20;;;22.87;;
5730;SDS011;2890;51.950;7.668;2024-03-07T06:43:05;29.13;;;21.50;;
5730;SDS011;2890;51.950;7.668;2024-03-07T06:45:32;33.97;;;23.47;;
5730;SDS011;2890;51.950;7.668;2024-03-07T06:47:59;39.00;;;22.90;;
5730;SDS011;2890;51.950;7.668;2024-03-07T06:50:25;31.97;;;22.37;;
5730;SDS011;2890;51.950;7.668;2024-03-07T06:52:54;30.37;;;22.43;;
5730;SDS011;2890;51.950;7.668;2024-03-07T06:55:20;35.37;;;23.10;;
5730;SDS011;2890;51.950;7.668;2024-03-07T06:57:48;30.47;;;22.47;;
5730;SDS011;2890;51.950;7.668;2024-03-07T07:00:15;34.30;;;23.23;;
5730;SDS011;2890;51.950;7.668;2024-03-07T07:02:44;32.00;;;23.27;;
5730;SDS011;2890;51.950;7.668;2024-03-07T07:05:10;28.80;;;22.37;;
5730;SDS011;2890;51.950;7.668;2024-03-07T07:07:37;34.17;;;24.40;;
5730;SDS011;2890;51.950;7.668;2024-03-07T07:10:04;29.83;;;22.23;;
5730;SDS011;2890;51.950;7.668;2024-03-07T07:12:33;34.47;;;23.80;;
5730;SDS011;2890;51.950;7.668;2024-03-07T07:15:02;29.67;;;22.77;;
5730;SDS011;2890;51.950;7.668;2024-03-07T07:17:29;29.67;;;22.37;;
5730;SDS011;2890;51.950;7.668;2024-03-07T07:19:56;34.77;;;24.67;;
5730;SDS011;2890;51.950;7.668;2024-03-07T07:22:24;32.80;;;22.53;;
5730;SDS011;2890;51.950;7.668;2024-03-07T07:24:51;30.80;;;23.27;;
5730;SDS011;2890;51.950;7.668;2024-03-07T07:27:17;30.57;;;22.80;;
5730;SDS011;2890;51.950;7.668;2024-03-07T07:29:44;30.73;;;22.27;;
5730;SDS011;2890;51.950;7.668;2024-03-07T07:32:12;33.07;;;22.30;;
5730;SDS011;2890;51.950;7.668;2024-03-07T07:34:39;32.50;;;22.77;;
5730;SDS011;2890;51.950;7.668;2024-03-07T07:37:07;31.00;;;21.27;;
5730;SDS011;2890;51.950;7.668;2024-03-07T07:39:34;32.77;;;22.27;;
5730;SDS011;2890;51.950;7.668;2024-03-07T07:42:00;32.30;;;23.50;;
5730;SDS011;2890;51.950;7.668;2024-03-07T07:44:27;30.30;;;22.50;;
5730;SDS011;2890;51.950;7.668;2024-03-07T07:46:54;33.70;;;22.20;;
5730;SDS011;2890;51.950;7.668;2024-03-07T07:49:22;30.33;;;22.27;;
5730;SDS011;2890;51.950;7.668;2024-03-07T07:51:48;31.67;;;21.57;;
5730;SDS011;2890;51.950;7.668;2024-03-07T07:54:15;31.43;;;22.13;;
5730;SDS011;2890;51.950;7.668;2024-03-07T07:56:42;28.70;;;21.27;;
5730;SDS011;2890;51.950;7.668;2024-03-07T07:59:09;36.90;;;23.43;;
5730;SDS011;2890;51.950;7.668;2024-03-07T08:01:36;32.23;;;21.63;;
5730;SDS011;2890;51.950;7.668;2024-03-07T08:04:02;36.20;;;22.17;;
5730;SDS011;2890;51.950;7.668;2024-03-07T08:06:31;31.20;;;21.13;;
5730;SDS011;2890;51.950;7.668;2024-03-07T08:08:57;33.67;;;22.10;;
5730;SDS011;2890;51.950;7.668;2024-03-07T08:11:24;27.60;;;20.50;;
5730;SDS011;2890;51.950;7.668;2024-03-07T08:13:51;32.23;;;21.30;;
5730;SDS011;2890;51.950;7.668;2024-03-07T08:16:17;28.27;;;21.20;;
5730;SDS011;2890;51.950;7.668;2024-03-07T08:18:44;30.30;;;22.10;;
5730;SDS011;2890;51.950;7.668;2024-03-07T08:21:10;28.63;;;21.63;;
5730;SDS011;2890;51.950;7.668;2024-03-07T08:23:38;29.60;;;21.70;;
5730;SDS011;2890;51.950;7.668;2024-03-07T08:26:06;29.80;;;22.43;;
5730;SDS011;2890;51.950;7.668;2024-03-07T08:28:32;29.40;;;20.83;;
5730;SDS011;2890;51.950;7.668;2024-03-07T08:30:59;28.87;;;21.40;;
5730;SDS011;2890;51.950;7.668;2024-03-07T08:33:25;29.20;;;21.60;;
5730;SDS011;2890;51.950;7.668;2024-03-07T08:35:52;35.17;;;21.90;;
5730;SDS011;2890;51.950;7.668;2024-03-07T08:38:19;27.83;;;20.70;;
5730;SDS011;2890;51.950;7.668;2024-03-07T08:40:47;27.40;;;20.43;;
5730;SDS011;2890;51.950;7.668;2024-03-07T08:43:13;28.53;;;21.27;;
5730;SDS011;2890;51.950;7.668;2024-03-07T08:45:40;27.80;;;20.80;;
5730;SDS011;2890;51.950;7.668;2024-03-07T08:48:07;30.93;;;20.80;;
5730;SDS011;2890;51.950;7.668;2024-03-07T08:50:34;30.03;;;21.30;;
5730;SDS011;2890;51.950;7.668;2024-03-07T08:53:02;30.20;;;21.87;;
5730;SDS011;2890;51.950;7.668;2024-03-07T08:55:30;26.33;;;20.37;;
5730;SDS011;2890;51.950;7.668;2024-03-07T08:57:58;28.20;;;20.47;;
5730;SDS011;2890;51.950;7.668;2024-03-07T09:00:25;32.83;;;20.80;;
5730;SDS011;2890;51.950;7.668;2024-03-07T09:02:52;28.73;;;20.07;;
5730;SDS011;2890;51.950;7.668;2024-03-07T09:05:19;27.20;;;19.87;;
5730;SDS011;2890;51.950;7.668;2024-03-07T09:07:47;27.73;;;20.90;;
5730;SDS011;2890;51.950;7.668;2024-03-07T09:10:13;26.53;;;19.40;;
5730;SDS011;2890;51.950;7.668;2024-03-07T09:12:41;23.30;;;19.53;;
5730;SDS011;2890;51.950;7.668;2024-03-07T09:15:09;24.33;;;19.07;;
5730;SDS011;2890;51.950;7.668;2024-03-07T09:17:36;23.57;;;18.77;;
5730;SDS011;2890;51.950;7.668;2024-03-07T09:20:03;28.47;;;20.47;;
5730;SDS011;2890;51.950;7.668;2024-03-07T09:22:30;25.10;;;19.20;;
5730;SDS011;2890;51.950;7.668;2024-03-07T09:24:57;30.73;;;19.63;;
5730;SDS011;2890;51.950;7.668;2024-03-07T09:27:24;29.43;;;19.67;;
5730;SDS011;2890;51.950;7.668;2024-03-07T09:29:50;24.33;;;19.30;;
5730;SDS011;2890;51.950;7.668;2024-03-07T09:32:18;23.80;;;17.53;;
5730;SDS011;2890;51.950;7.668;2024-03-07T09:34:47;23.67;;;18.90;;
5730;SDS011;2890;51.950;7.668;2024-03-07T09:37:14;25.03;;;18.90;;
5730;SDS011;2890;51.950;7.668;2024-03-07T09:39:41;22.70;;;18.87;;
5730;SDS011;2890;51.950;7.668;2024-03-07T09:42:08;25.77;;;19.23;;
5730;SDS011;2890;51.950;7.668;2024-03-07T09:44:35;22.97;;;18.97;;
5730;SDS011;2890;51.950;7.668;2024-03-07T09:47:04;24.23;;;18.93;;
5730;SDS011;2890;51.950;7.668;2024-03-07T09:49:33;26.00;;;19.90;;
5730;SDS011;2890;51.950;7.668;2024-03-07T09:52:01;24.40;;;19.57;;
5730;SDS011;2890;51.950;7.668;2024-03-07T09:54:29;24.50;;;18.50;;
5730;SDS011;2890;51.950;7.668;2024-03-07T09:56:56;30.33;;;20.57;;
5730;SDS011;2890;51.950;7.668;2024-03-07T09:59:28;24.00;;;19.53;;
5730;SDS011;2890;51.950;7.668;2024-03-07T10:01:55;26.23;;;20.47;;
5730;SDS011;2890;51.950;7.668;2024-03-07T10:04:25;25.73;;;19.43;;
5730;SDS011;2890;51.950;7.668;2024-03-07T10:06:56;22.57;;;17.97;;
5730;SDS011;2890;51.950;7.668;2024-03-07T10:09:23;27.87;;;19.20;;
5730;SDS011;2890;51.950;7.668;2024-03-07T10:11:55;24.80;;;18.87;;
5730;SDS011;2890;51.950;7.668;2024-03-07T10:14:22;23.43;;;19.73;;
5730;SDS011;2890;51.950;7.668;2024-03-07T10:16:49;26.43;;;20.03;;
5730;SDS011;2890;51.950;7.668;2024-03-07T10:19:15;28.40;;;20.40;;
5730;SDS011;2890;51.950;7.668;2024-03-07T10:21:42;26.50;;;20.17;;
5730;SDS011;2890;51.950;7.668;2024-03-07T10:24:10;23.40;;;18.90;;
5730;SDS011;2890;51.950;7.668;2024-03-07T10:26:37;25.53;;;20.20;;
5730;SDS011;2890;51.950;7.668;2024-03-07T10:29:05;24.37;;;18.87;;
5730;SDS011;2890;51.950;7.668;2024-03-07T10:31:32;23.77;;;18.90;;
5730;SDS011;2890;51.950;7.668;2024-03-07T10:34:00;25.90;;;19.53;;
5730;SDS011;2890;51.950;7.668;2024-03-07T10:36:27;21.13;;;18.47;;
5730;SDS011;2890;51.950;7.668;2024-03-07T10:38:55;25.10;;;19.60;;
5730;SDS011;2890;51.950;7.668;2024-03-07T10:41:23;25.03;;;19.83;;
5730;SDS011;2890;51.950;7.668;2024-03-07T10:43:55;27.10;;;20.37;;
5730;SDS011;2890;51.950;7.668;2024-03-07T10:46:23;24.70;;;19.53;;
5730;SDS011;2890;51.950;7.668;2024-03-07T10:48:52;23.97;;;19.13;;
5730;SDS011;2890;51.950;7.668;2024-03-07T10:51:23;26.50;;;20.63;;
5730;SDS011;2890;51.950;7.668;2024-03-07T10:53:53;24.07;;;18.53;;
5730;SDS011;2890;51.950;7.668;2024-03-07T10:56:32;24.97;;;19.10;;
5730;SDS011;2890;51.950;7.668;2024-03-07T10:59:05;22.77;;;18.50;;
5730;SDS011;2890;51.950;7.668;2024-03-07T11:01:38;24.50;;;19.33;;
5730;SDS011;2890;51.950;7.668;2024-03-07T11:04:05;24.60;;;18.97;;
5730;SDS011;2890;51.950;7.668;2024-03-07T11:06:33;22.87;;;18.20;;
5730;SDS011;2890;51.950;7.668;2024-03-07T11:09:02;24.53;;;19.50;;
5730;SDS011;2890;51.950;7.668;2024-03-07T11:11:36;25.60;;;18.63;;
5730;SDS011;2890;51.950;7.668;2024-03-07T11:14:06;26.17;;;19.37;;
5730;SDS011;2890;51.950;7.668;2024-03-07T11:16:35;25.93;;;19.10;;
5730;SDS011;2890;51.950;7.668;2024-03-07T11:19:17;24.83;;;20.47;;
5730;SDS011;2890;51.950;7.668;2024-03-07T11:21:45;24.60;;;18.80;;
5730;SDS011;2890;51.950;7.668;2024-03-07T11:24:22;26.00;;;18.80;;
5730;SDS011;2890;51.950;7.668;2024-03-07T11:26:51;27.00;;;19.90;;
5730;SDS011;2890;51.950;7.668;2024-03-07T11:32:10;28.10;;;19.70;;
5730;SDS011;2890;51.950;7.668;2024-03-07T11:34:40;25.33;;;19.07;;
5730;SDS011;2890;51.950;7.668;2024-03-07T11:37:07;26.30;;;20.40;;
5730;SDS011;2890;51.950;7.668;2024-03-07T11:39:42;32.20;;;20.40;;
5730;SDS011;2890;51.950;7.668;2024-03-07T11:42:19;28.30;;;20.23;;
5730;SDS011;2890;51.950;7.668;2024-03-07T11:44:50;27.10;;;19.37;;
5730;SDS011;2890;51.950;7.668;2024-03-07T11:47:17;27.87;;;20.27;;
5730;SDS011;2890;51.950;7.668;2024-03-07T11:49:44;29.67;;;20.40;;
5730;SDS011;2890;51.950;7.668;2024-03-07T11:52:13;29.00;;;19.80;;
5730;SDS011;2890;51.950;7.668;2024-03-07T11:54:41;29.47;;;20.47;;
5730;SDS011;2890;51.950;7.668;2024-03-07T11:57:12;28.50;;;21.40;;
5730;SDS011;2890;51.950;7.668;2024-03-07T11:59:40;26.97;;;19.77;;
5730;SDS011;2890;51.950;7.668;2024-03-07T12:02:10;26.40;;;20.57;;
5730;SDS011;2890;51.950;7.668;2024-03-07T12:04:38;29.50;;;21.30;;
5730;SDS011;2890;51.950;7.668;2024-03-07T12:07:05;28.70;;;20.13;;
5730;SDS011;2890;51.950;7.668;2024-03-07T12:09:35;27.53;;;19.70;;
5730;SDS011;2890;51.950;7.668;2024-03-07T12:12:02;27.80;;;20.87;;
5730;SDS011;2890;51.950;7.668;2024-03-07T12:14:29;31.57;;;21.40;;
5730;SDS011;2890;51.950;7.668;2024-03-07T12:16:58;31.57;;;20.90;;
5730;SDS011;2890;51.950;7.668;2024-03-07T12:19:24;30.13;;;20.47;;
5730;SDS011;2890;51.950;7.668;2024-03-07T12:21:55;29.43;;;19.97;;
5730;SDS011;2890;51.950;7.668;2024-03-07T12:24:22;27.10;;;19.90;;
5730;SDS011;2890;51.950;7.668;2024-03-07T12:26:49;33.33;;;20.33;;
5730;SDS011;2890;51.950;7.668;2024-03-07T12:29:15;28.90;;;20.10;;
5730;SDS011;2890;51.950;7.668;2024-03-07T12:31:42;26.93;;;20.30;;
5730;SDS011;2890;51.950;7.668;2024-03-07T12:34:10;30.20;;;21.37;;
5730;SDS011;2890;51.950;7.668;2024-03-07T12:36:36;27.53;;;20.00;;
5730;SDS011;2890;51.950;7.668;2024-03-07T12:39:20;26.87;;;19.90;;
5730;SDS011;2890;51.950;7.668;2024-03-07T12:41:51;28.10;;;19.20;;
5730;SDS011;2890;51.950;7.668;2024-03-07T12:44:18;30.23;;;19.70;;
5730;SDS011;2890;51.950;7.668;2024-03-07T12:46:45;27.90;;;19.47;;
5730;SDS011;2890;51.950;7.668;2024-03-07T12:49:14;28.53;;;20.00;;
5730;SDS011;2890;51.950;7.668;2024-03-07T12:51:41;31.50;;;20.77;;
5730;SDS011;2890;51.950;7.668;2024-03-07T12:54:08;30.70;;;20.53;;
5730;SDS011;2890;51.950;7.668;2024-03-07T12:56:35;29.00;;;20.53;;
5730;SDS011;2890;51.950;7.668;2024-03-07T12:59:02;28.13;;;20.90;;
5730;SDS011;2890;51.950;7.668;2024-03-07T13:01:29;28.27;;;19.90;;
5730;SDS011;2890;51.950;7.668;2024-03-07T13:03:55;32.47;;;20.90;;
5730;SDS011;2890;51.950;7.668;2024-03-07T13:06:24;38.00;;;21.90;;
5730;SDS011;2890;51.950;7.668;2024-03-07T13:08:54;31.87;;;21.50;;
5730;SDS011;2890;51.950;7.668;2024-03-07T13:11:21;31.30;;;21.30;;
5730;SDS011;2890;51.950;7.668;2024-03-07T13:13:48;33.10;;;21.40;;
5730;SDS011;2890;51.950;7.668;2024-03-07T13:16:16;37.37;;;21.57;;
5730;SDS011;2890;51.950;7.668;2024-03-07T13:18:43;38.00;;;21.37;;
5730;SDS011;2890;51.950;7.668;2024-03-07T13:21:10;32.67;;;21.03;;
5730;SDS011;2890;51.950;7.668;2024-03-07T13:23:43;27.90;;;20.20;;
5730;SDS011;2890;51.950;7.668;2024-03-07T13:26:10;31.53;;;21.40;;
5730;SDS011;2890;51.950;7.668;2024-03-07T13:28:41;28.43;;;20.50;;
5730;SDS011;2890;51.950;7.668;2024-03-07T13:31:09;30.30;;;20.00;;
5730;SDS011;2890;51.950;7.668;2024-03-07T13:33:36;30.63;;;19.87;;
5730;SDS011;2890;51.950;7.668;2024-03-07T13:36:03;29.43;;;18.80;;
5730;SDS011;2890;51.950;7.668;2024-03-07T13:38:32;31.40;;;18.97;;
5730;SDS011;2890;51.950;7.668;2024-03-07T13:41:00;27.93;;;19.30;;
5730;SDS011;2890;51.950;7.668;2024-03-07T13:43:28;27.40;;;18.60;;
5730;SDS011;2890;51.950;7.668;2024-03-07T13:45:55;27.33;;;18.57;;
5730;SDS011;2890;51.950;7.668;2024-03-07T13:48:22;28.70;;;18.50;;
5730;SDS011;2890;51.950;7.668;2024-03-07T13:50:49;30.40;;;18.07;;
5730;SDS011;2890;51.950;7.668;2024-03-07T13:53:16;23.90;;;17.57;;
5730;SDS011;2890;51.950;7.668;2024-03-07T13:55:56;26.97;;;18.60;;
5730;SDS011;2890;51.950;7.668;2024-03-07T13:58:48;28.70;;;18.90;;
5730;SDS011;2890;51.950;7.668;2024-03-07T14:01:25;25.90;;;17.53;;
5730;SDS011;2890;51.950;7.668;2024-03-07T14:07:11;30.10;;;19.43;;
5730;SDS011;2890;51.950;7.668;2024-03-07T14:09:56;32.50;;;18.70;;
5730;SDS011;2890;51.950;7.668;2024-03-07T14:12:49;28.33;;;19.03;;
5730;SDS011;2890;51.950;7.668;2024-03-07T14:21:48;29.00;;;17.60;;
5730;SDS011;2890;51.950;7.668;2024-03-07T14:27:31;27.67;;;18.80;;
5730;SDS011;2890;51.950;7.668;2024-03-07T14:32:49;29.30;;;18.93;;
5730;SDS011;2890;51.950;7.668;2024-03-07T14:35:20;32.67;;;20.27;;
5730;SDS011;2890;51.950;7.668;2024-03-07T14:37:52;34.03;;;21.47;;
5730;SDS011;2890;51.950;7.668;2024-03-07T14:40:20;29.40;;;19.50;;
5730;SDS011;2890;51.950;7.668;2024-03-07T14:42:50;30.27;;;20.53;;
5730;SDS011;2890;51.950;7.668;2024-03-07T14:45:18;29.73;;;19.43;;
5730;SDS011;2890;51.950;7.668;2024-03-07T14:47:48;36.87;;;21.63;;
5730;SDS011;2890;51.950;7.668;2024-03-07T14:50:17;37.40;;;21.13;;
5730;SDS011;2890;51.950;7.668;2024-03-07T14:52:45;34.37;;;22.60;;
5730;SDS011;2890;51.950;7.668;2024-03-07T14:55:12;35.60;;;21.70;;
5730;SDS011;2890;51.950;7.668;2024-03-07T14:57:44;39.00;;;23.23;;
5730;SDS011;2890;51.950;7.668;2024-03-07T15:00:11;35.60;;;23.13;;
5730;SDS011;2890;51.950;7.668;2024-03-07T15:02:45;35.23;;;23.60;;
5730;SDS011;2890;51.950;7.668;2024-03-07T15:05:12;45.53;;;21.93;;
5730;SDS011;2890;51.950;7.668;2024-03-07T15:07:40;47.90;;;22.40;;
5730;SDS011;2890;51.950;7.668;2024-03-07T15:10:07;39.43;;;23.97;;